createdAt,value
2019-04-03T00:00:24.684Z,28.67
2019-04-03T00:02:53.209Z,30.72
2019-04-03T00:05:21.773Z,30.00
2019-04-03T00:07:51.745Z,30.15
2019-04-03T00:10:20.345Z,28.32
2019-04-03T00:12:49.120Z,29.23
2019-04-03T00:15:17.730Z,31.12
2019-04-03T00:17:46.386Z,30.70
2019-04-03T00:20:15.074Z,30.95
2019-04-03T00:22:46.126Z,35.00
2019-04-03T00:25:14.290Z,35.30
2019-04-03T00:27:42.835Z,31.57
2019-04-03T00:30:11.937Z,28.35
2019-04-03T00:32:40.616Z,28.40
2019-04-03T00:35:10.036Z,29.02
2019-04-03T00:37:39.150Z,32.95
2019-04-03T00:40:08.188Z,29.77
2019-04-03T00:42:36.756Z,34.03
2019-04-03T00:45:07.326Z,31.05
2019-04-03T00:47:35.843Z,32.35
2019-04-03T00:50:06.258Z,34.75
2019-04-03T00:52:35.372Z,36.00
2019-04-03T00:55:04.405Z,38.80
2019-04-03T00:57:32.924Z,34.08
2019-04-03T01:00:01.901Z,33.05
2019-04-03T01:02:30.572Z,35.68
2019-04-03T01:04:59.177Z,34.90
2019-04-03T01:07:29.293Z,37.23
2019-04-03T01:09:59.540Z,36.42
2019-04-03T01:12:30.384Z,39.75
2019-04-03T01:15:01.085Z,35.25
2019-04-03T01:17:29.277Z,39.20
2019-04-03T01:19:57.975Z,34.00
2019-04-03T01:22:26.923Z,36.95
2019-04-03T01:24:55.423Z,35.83
2019-04-03T01:27:24.136Z,33.20
2019-04-03T01:29:52.684Z,35.40
2019-04-03T01:32:21.192Z,35.55
2019-04-03T01:34:49.709Z,31.82
2019-04-03T01:37:19.357Z,34.48
2019-04-03T01:39:49.026Z,30.35
2019-04-03T01:42:18.303Z,33.55
2019-04-03T01:44:46.863Z,33.88
2019-04-03T01:47:15.550Z,33.13
2019-04-03T01:49:44.155Z,31.45
2019-04-03T01:52:12.712Z,35.80
2019-04-03T01:54:41.352Z,31.97
2019-04-03T01:57:09.986Z,34.33
2019-04-03T01:59:38.929Z,33.90
2019-04-03T02:02:08.510Z,33.35
2019-04-03T02:04:37.486Z,38.73
2019-04-03T02:07:06.344Z,32.40
2019-04-03T02:09:34.874Z,35.88
2019-04-03T02:12:03.570Z,35.23
2019-04-03T02:14:32.379Z,37.13
2019-04-03T02:17:00.875Z,40.90
2019-04-03T02:19:29.482Z,36.10
2019-04-03T02:21:59.131Z,38.35
2019-04-03T02:24:28.038Z,38.33
2019-04-03T02:26:56.633Z,38.55
2019-04-03T02:29:25.556Z,35.58
2019-04-03T02:31:54.056Z,37.80
2019-04-03T02:34:22.635Z,35.30
2019-04-03T02:36:51.588Z,38.02
2019-04-03T02:39:20.086Z,37.73
2019-04-03T02:41:48.704Z,41.73
2019-04-03T02:44:19.133Z,40.25
2019-04-03T02:46:47.899Z,40.03
2019-04-03T02:49:16.489Z,40.75
2019-04-03T02:51:47.231Z,40.92
2019-04-03T02:54:34.679Z,43.17
2019-04-03T02:57:00.964Z,37.58
2019-04-03T02:59:29.739Z,39.38
2019-04-03T03:01:58.605Z,40.10
2019-04-03T03:04:27.230Z,39.95
2019-04-03T03:06:57.041Z,36.38
2019-04-03T03:09:26.486Z,35.95
2019-04-03T03:11:56.992Z,38.58
2019-04-03T03:14:26.453Z,38.17
2019-04-03T03:16:55.606Z,36.40
2019-04-03T03:19:24.477Z,41.08
2019-04-03T03:21:56.043Z,35.65
2019-04-03T03:24:28.453Z,39.45
2019-04-03T03:26:56.071Z,41.13
2019-04-03T03:29:26.954Z,36.90
2019-04-03T03:32:13.203Z,41.98
2019-04-03T03:34:47.601Z,42.90
2019-04-03T03:37:03.138Z,45.28
2019-04-03T03:39:32.578Z,41.37
2019-04-03T03:42:01.875Z,41.68
2019-04-03T03:44:31.182Z,44.65
2019-04-03T03:47:02.835Z,49.50
2019-04-03T03:49:31.852Z,43.87
2019-04-03T03:52:04.009Z,41.33
2019-04-03T03:54:31.844Z,39.98
2019-04-03T03:57:04.330Z,41.75
2019-04-03T03:59:31.842Z,49.30
2019-04-03T04:02:03.511Z,40.38
2019-04-03T04:04:30.950Z,44.20
2019-04-03T04:07:02.188Z,45.70
2019-04-03T04:09:31.027Z,40.70
2019-04-03T04:11:59.919Z,41.53
2019-04-03T04:14:28.688Z,42.23
2019-04-03T04:16:57.930Z,40.35
2019-04-03T04:19:30.520Z,42.50
2019-04-03T04:21:56.933Z,43.68
2019-04-03T04:24:28.000Z,38.92
2019-04-03T04:26:57.042Z,43.38
2019-04-03T04:29:25.557Z,41.28
2019-04-03T04:31:54.750Z,41.80
2019-04-03T04:34:23.642Z,44.25
2019-04-03T04:36:53.304Z,43.42
2019-04-03T04:39:22.729Z,46.08
2019-04-03T04:41:51.470Z,43.08
2019-04-03T04:44:20.211Z,43.85
2019-04-03T04:46:48.773Z,40.98
2019-04-03T04:49:17.270Z,40.92
2019-04-03T04:51:46.050Z,41.60
2019-04-03T04:54:15.029Z,38.53
2019-04-03T04:56:43.560Z,39.80
2019-04-03T04:59:13.528Z,40.58
2019-04-03T05:01:42.522Z,42.48
2019-04-03T05:04:11.367Z,38.98
2019-04-03T05:06:39.896Z,41.85
2019-04-03T05:09:08.589Z,41.92
2019-04-03T05:11:39.099Z,41.15
2019-04-03T05:14:07.366Z,44.85
2019-04-03T05:16:36.764Z,45.03
2019-04-03T05:19:10.662Z,43.33
2019-04-03T05:21:35.685Z,42.33
2019-04-03T05:24:11.383Z,41.13
2019-04-03T05:26:35.217Z,43.05
2019-04-03T05:29:04.712Z,41.83
2019-04-03T05:31:33.820Z,44.98
2019-04-03T05:34:02.591Z,44.23
2019-04-03T05:36:31.114Z,45.45
2019-04-03T05:39:02.604Z,37.58
2019-04-03T05:41:30.514Z,43.00
2019-04-03T05:44:00.085Z,40.65
2019-04-03T05:46:29.462Z,42.35
2019-04-03T05:48:58.317Z,39.48
2019-04-03T05:51:29.138Z,40.05
2019-04-03T05:53:57.677Z,40.90
2019-04-03T05:56:26.442Z,42.00
2019-04-03T05:58:57.251Z,41.10
2019-04-03T06:01:25.530Z,39.67
2019-04-03T06:03:54.279Z,37.75
2019-04-03T06:06:22.805Z,43.25
2019-04-03T06:08:51.985Z,39.05
2019-04-03T06:11:20.909Z,38.08
2019-04-03T06:13:50.003Z,39.33
2019-04-03T06:16:18.718Z,37.08
2019-04-03T06:18:59.132Z,36.05
2019-04-03T06:21:28.605Z,36.85
2019-04-03T06:23:57.241Z,37.10
2019-04-03T06:26:25.753Z,37.15
2019-04-03T06:28:54.693Z,34.85
2019-04-03T06:31:24.350Z,42.50
2019-04-03T06:33:53.594Z,35.15
2019-04-03T06:36:22.143Z,38.55
2019-04-03T06:38:50.666Z,38.63
2019-04-03T06:41:19.471Z,42.15
2019-04-03T06:43:50.155Z,35.90
2019-04-03T06:46:18.410Z,33.70
2019-04-03T06:48:47.098Z,39.05
2019-04-03T06:51:16.759Z,35.55
2019-04-03T06:53:48.160Z,35.40
2019-04-03T06:56:16.686Z,33.63
2019-04-03T06:58:45.546Z,38.70
2019-04-03T07:01:14.215Z,31.73
2019-04-03T07:03:44.180Z,36.80
2019-04-03T07:06:13.710Z,33.60
2019-04-03T07:08:42.219Z,35.40
2019-04-03T07:11:22.404Z,33.18
2019-04-03T07:13:40.992Z,34.50
2019-04-03T07:16:09.510Z,32.48
2019-04-03T07:18:38.078Z,44.08
2019-04-03T07:21:06.631Z,38.40
2019-04-03T07:23:35.138Z,35.83
2019-04-03T07:26:05.173Z,32.05
2019-04-03T07:28:34.134Z,39.18
2019-04-03T07:31:02.678Z,28.73
2019-04-03T07:33:31.223Z,36.70
2019-04-03T07:35:59.894Z,32.55
2019-04-03T07:38:28.868Z,33.50
2019-04-03T07:40:57.618Z,45.05
2019-04-03T07:43:26.929Z,32.93
2019-04-03T07:45:56.165Z,38.78
2019-04-03T07:48:25.048Z,33.60
2019-04-03T07:50:54.017Z,34.85
2019-04-03T07:53:23.077Z,35.80
2019-04-03T07:55:51.950Z,30.32
2019-04-03T07:58:20.946Z,28.38
2019-04-03T08:00:49.661Z,29.65
2019-04-03T08:03:20.368Z,30.92
2019-04-03T08:05:48.798Z,34.33
2019-04-03T08:08:17.773Z,27.95
2019-04-03T08:10:52.878Z,29.48
2019-04-03T08:13:23.299Z,31.77
2019-04-03T08:15:52.349Z,30.50
2019-04-03T08:18:21.900Z,33.75
2019-04-03T08:20:51.059Z,35.28
2019-04-03T08:23:19.883Z,33.63
2019-04-03T08:25:49.207Z,33.45
2019-04-03T08:28:18.194Z,32.63
2019-04-03T08:30:46.809Z,29.85
2019-04-03T08:33:19.797Z,30.20
2019-04-03T08:35:48.157Z,29.18
2019-04-03T08:38:16.757Z,27.85
2019-04-03T08:40:45.348Z,29.55
2019-04-03T08:43:15.592Z,30.52
2019-04-03T08:45:44.529Z,29.45
2019-04-03T08:48:13.081Z,29.75
2019-04-03T08:50:41.891Z,32.63
2019-04-03T08:53:10.876Z,28.75
2019-04-03T08:55:39.698Z,32.98
2019-04-03T08:58:08.356Z,24.65
2019-04-03T09:00:37.144Z,28.83
2019-04-03T09:03:05.926Z,28.47
2019-04-03T09:05:34.608Z,30.88
2019-04-03T09:08:03.211Z,28.75
2019-04-03T09:10:36.363Z,27.50
2019-04-03T09:13:15.455Z,27.05
2019-04-03T09:15:32.945Z,26.02
2019-04-03T09:18:01.762Z,24.12
2019-04-03T09:20:30.308Z,24.47
2019-04-03T09:22:58.856Z,23.18
2019-04-03T09:25:27.595Z,28.45
2019-04-03T09:27:56.315Z,25.40
2019-04-03T09:30:25.990Z,26.68
2019-04-03T09:32:59.007Z,26.27
2019-04-03T09:35:26.132Z,24.67
2019-04-03T09:37:54.774Z,26.10
2019-04-03T09:40:23.706Z,25.23
2019-04-03T09:42:52.289Z,26.85
2019-04-03T09:45:20.811Z,27.93
2019-04-03T09:47:50.636Z,30.55
2019-04-03T09:50:22.320Z,27.60
2019-04-03T09:52:50.760Z,26.60
2019-04-03T09:55:19.750Z,26.90
2019-04-03T09:57:48.348Z,28.23
2019-04-03T10:00:17.486Z,23.67
2019-04-03T10:02:45.989Z,24.67
2019-04-03T10:05:16.313Z,24.37
2019-04-03T10:07:45.353Z,23.85
2019-04-03T10:10:16.533Z,25.40
2019-04-03T10:12:47.325Z,31.10
2019-04-03T10:15:18.150Z,32.58
2019-04-03T10:17:45.734Z,27.20
2019-04-03T10:20:17.297Z,28.67
2019-04-03T10:22:45.336Z,31.83
2019-04-03T10:25:14.358Z,31.27
2019-04-03T10:27:43.706Z,30.10
2019-04-03T10:30:15.741Z,32.58
2019-04-03T10:32:44.636Z,32.28
2019-04-03T10:35:13.697Z,34.13
2019-04-03T10:37:42.209Z,31.77
2019-04-03T10:40:12.293Z,36.98
2019-04-03T10:42:42.394Z,36.58
2019-04-03T10:45:11.683Z,35.85
2019-04-03T10:47:43.367Z,36.20
2019-04-03T10:50:12.894Z,33.95
2019-04-03T10:52:44.054Z,34.78
2019-04-03T10:55:11.971Z,30.23
2019-04-03T10:57:42.371Z,31.93
2019-04-03T11:00:13.364Z,35.35
2019-04-03T11:02:42.035Z,31.90
2019-04-03T11:05:12.927Z,28.70
2019-04-03T11:07:41.776Z,32.65
2019-04-03T11:10:12.456Z,25.77
2019-04-03T11:12:41.465Z,31.00
2019-04-03T11:15:11.692Z,24.52
2019-04-03T11:17:43.113Z,28.17
2019-04-03T11:20:13.442Z,27.42
2019-04-03T11:25:15.327Z,21.25
2019-04-03T11:27:45.037Z,23.98
2019-04-03T11:30:18.239Z,23.18
2019-04-03T11:30:55.128Z,25.75
2019-04-03T11:32:46.515Z,21.30
2019-04-03T11:35:15.600Z,19.80
2019-04-03T11:37:44.181Z,19.60
2019-04-03T11:40:14.097Z,19.85
2019-04-03T11:42:42.926Z,19.57
2019-04-03T11:45:12.214Z,16.85
2019-04-03T11:47:40.867Z,18.07
2019-04-03T11:50:11.088Z,17.30
2019-04-03T11:52:39.984Z,18.07
2019-04-03T11:55:10.895Z,18.48
2019-04-03T11:57:39.909Z,18.37
2019-04-03T12:00:18.871Z,19.35
2019-04-03T12:02:47.918Z,17.50
2019-04-03T12:05:20.745Z,17.02
2019-04-03T12:07:48.924Z,18.55
2019-04-03T12:10:17.950Z,17.25
2019-04-03T12:12:48.080Z,17.77
2019-04-03T12:15:20.085Z,16.55
2019-04-03T12:17:47.542Z,15.98
2019-04-03T12:20:18.288Z,15.48
2019-04-03T12:22:46.954Z,18.50
2019-04-03T12:25:16.158Z,14.38
2019-04-03T12:27:46.000Z,15.38
2019-04-03T12:30:16.218Z,16.35
2019-04-03T12:32:48.742Z,15.28
2019-04-03T12:35:15.815Z,13.55
2019-04-03T12:37:44.554Z,17.27
2019-04-03T12:40:14.209Z,17.00
2019-04-03T12:42:42.769Z,14.25
2019-04-03T12:45:12.069Z,12.93
2019-04-03T12:47:42.825Z,13.20
2019-04-03T12:50:14.056Z,11.75
2019-04-03T12:55:13.188Z,14.43
2019-04-03T12:57:41.870Z,11.22
2019-04-03T13:00:13.654Z,12.60
2019-04-03T13:02:43.296Z,10.85
2019-04-03T13:05:13.128Z,9.28
2019-04-03T13:07:41.730Z,8.93
2019-04-03T13:10:12.359Z,7.97
2019-04-03T13:12:41.312Z,8.03
2019-04-03T13:15:12.550Z,5.87
2019-04-03T13:17:43.830Z,5.65
2019-04-03T13:20:12.406Z,4.20
2019-04-03T13:22:42.543Z,3.92
2019-04-03T13:25:11.962Z,3.72
2019-04-03T13:27:40.748Z,4.15
2019-04-03T13:30:12.904Z,3.72
2019-04-03T13:32:41.908Z,5.53
2019-04-03T13:35:14.629Z,5.05
2019-04-03T13:37:42.208Z,5.78
2019-04-03T13:40:11.656Z,7.35
2019-04-03T13:42:40.259Z,6.62
2019-04-03T13:45:09.759Z,5.92
2019-04-03T13:47:41.074Z,5.78
2019-04-03T13:50:10.601Z,5.83
2019-04-03T13:52:43.184Z,5.58
2019-04-03T13:55:11.040Z,6.92
2019-04-03T13:57:39.731Z,6.05
2019-04-03T14:00:18.278Z,5.60
2019-04-03T14:02:40.131Z,5.20
2019-04-03T14:05:09.826Z,7.17
2019-04-03T14:07:41.498Z,6.72
2019-04-03T14:10:09.937Z,6.85
2019-04-03T14:12:43.095Z,8.25
2019-04-03T14:15:09.786Z,5.87
2019-04-03T14:17:38.720Z,3.65
2019-04-03T14:20:08.770Z,6.67
2019-04-03T14:22:37.532Z,4.97
2019-04-03T14:25:18.060Z,5.92
2019-04-03T14:27:37.692Z,6.72
2019-04-03T14:30:11.632Z,8.83
2019-04-03T14:32:44.274Z,6.30
2019-04-03T14:37:41.435Z,5.58
2019-04-03T14:40:12.341Z,6.60
2019-04-03T14:42:40.980Z,5.65
2019-04-03T14:45:13.431Z,5.80
2019-04-03T14:47:40.799Z,4.13
2019-04-03T14:50:10.195Z,6.15
2019-04-03T14:52:38.901Z,5.62
2019-04-03T14:55:18.658Z,6.42
2019-04-03T14:57:38.607Z,4.63
2019-04-03T15:00:24.595Z,5.67
2019-04-03T15:02:41.384Z,6.37
2019-04-03T15:05:10.791Z,6.78
2019-04-03T15:07:40.449Z,8.30
2019-04-03T15:10:12.796Z,13.00
2019-04-03T15:12:41.431Z,7.87
2019-04-03T15:15:11.967Z,10.80
2019-04-03T15:17:41.585Z,10.25
2019-04-03T15:20:12.379Z,15.05
2019-04-03T15:22:42.667Z,11.95
2019-04-03T15:25:12.902Z,13.20
2019-04-03T15:27:42.510Z,11.95
2019-04-03T15:30:12.927Z,12.13
2019-04-03T15:32:41.601Z,13.05
2019-04-03T15:35:10.704Z,13.78
2019-04-03T15:37:41.431Z,12.20
2019-04-03T15:40:10.268Z,10.85
2019-04-03T15:42:41.287Z,12.82
2019-04-03T15:45:10.490Z,14.50
2019-04-03T15:47:45.155Z,11.08
2019-04-03T15:50:10.678Z,11.83
2019-04-03T15:55:27.286Z,14.30
2019-04-03T15:58:07.096Z,14.50
2019-04-03T16:00:36.658Z,12.28
2019-04-03T16:03:06.098Z,12.47
2019-04-03T16:05:36.453Z,15.18
2019-04-03T16:08:05.794Z,13.88
2019-04-03T16:10:34.481Z,13.55
2019-04-03T16:13:03.552Z,12.70
2019-04-03T16:15:33.497Z,11.28
2019-04-03T16:18:09.066Z,13.25
2019-04-03T16:20:38.296Z,12.60
2019-04-03T16:23:07.081Z,14.30
2019-04-03T16:25:36.324Z,14.33
2019-04-03T16:28:05.712Z,13.10
2019-04-03T16:30:40.214Z,14.50
2019-04-03T16:33:19.857Z,11.57
2019-04-03T16:35:41.155Z,15.45
2019-04-03T16:38:15.022Z,17.45
2019-04-03T16:40:46.594Z,11.63
2019-04-03T16:43:16.794Z,13.93
2019-04-03T16:45:46.650Z,13.75
2019-04-03T16:48:17.913Z,15.20
2019-04-03T16:53:19.870Z,13.62
2019-04-03T16:55:48.457Z,13.38
2019-04-03T16:58:17.606Z,12.37
2019-04-03T17:00:47.335Z,10.18
2019-04-03T17:03:17.129Z,10.13
2019-04-03T17:05:47.507Z,13.90
2019-04-03T17:08:17.170Z,10.65
2019-04-03T17:10:46.367Z,11.60
2019-04-03T17:13:15.679Z,12.05
2019-04-03T17:15:46.883Z,12.55
2019-04-03T17:18:17.135Z,12.97
2019-04-03T17:20:49.469Z,11.75
2019-04-03T17:23:17.041Z,14.83
2019-04-03T17:25:50.098Z,14.25
2019-04-03T17:28:16.487Z,12.20
2019-04-03T17:30:45.911Z,13.98
2019-04-03T17:33:15.574Z,12.25
2019-04-03T17:35:47.158Z,15.65
2019-04-03T17:38:16.312Z,12.78
2019-04-03T17:40:45.420Z,14.47
2019-04-03T17:43:16.856Z,14.55
2019-04-03T17:45:46.549Z,14.33
2019-04-03T17:48:16.211Z,15.48
2019-04-03T17:50:45.449Z,16.07
2019-04-03T17:53:15.539Z,16.15
2019-04-03T17:55:46.556Z,14.38
2019-04-03T17:58:16.832Z,15.55
2019-04-03T18:00:46.163Z,19.30
2019-04-03T18:03:15.037Z,18.77
2019-04-03T18:05:43.825Z,17.50
2019-04-03T18:08:12.715Z,20.37
2019-04-03T18:10:42.579Z,16.45
2019-04-03T18:13:12.623Z,16.23
2019-04-03T18:15:41.336Z,16.15
2019-04-03T18:18:10.543Z,17.40
2019-04-03T18:20:39.605Z,18.85
2019-04-03T18:23:10.652Z,15.70
2019-04-03T18:25:38.862Z,17.92
2019-04-03T18:28:07.449Z,20.60
2019-04-03T18:30:36.119Z,16.80
2019-04-03T18:33:05.990Z,16.73
2019-04-03T18:35:34.956Z,16.48
2019-04-03T18:38:03.614Z,22.35
2019-04-03T18:40:32.204Z,20.32
2019-04-03T18:43:00.995Z,16.35
2019-04-03T18:45:29.676Z,18.25
2019-04-03T18:47:58.800Z,19.05
2019-04-03T18:50:27.571Z,19.17
2019-04-03T18:52:56.443Z,16.48
2019-04-03T18:55:24.989Z,16.52
2019-04-03T18:57:53.838Z,17.35
2019-04-03T19:00:23.609Z,17.57
2019-04-03T19:02:52.216Z,20.88
2019-04-03T19:05:21.234Z,20.08
2019-04-03T19:07:49.997Z,20.50
2019-04-03T19:10:18.906Z,21.07
2019-04-03T19:12:48.130Z,18.60
2019-04-03T19:15:16.833Z,21.35
2019-04-03T19:17:45.790Z,18.57
2019-04-03T19:20:15.074Z,22.35
2019-04-03T19:22:43.771Z,22.70
2019-04-03T19:25:12.677Z,19.73
2019-04-03T19:27:41.545Z,21.20
2019-04-03T19:30:10.430Z,18.80
2019-04-03T19:32:43.266Z,21.77
2019-04-03T19:35:13.774Z,22.15
2019-04-03T19:37:55.003Z,22.37
2019-04-03T19:40:24.182Z,21.80
2019-04-03T19:42:54.595Z,22.30
2019-04-03T19:45:26.240Z,21.57
2019-04-03T19:47:57.754Z,20.37
2019-04-03T19:50:36.377Z,20.92
2019-04-03T19:53:08.272Z,27.27
2019-04-03T19:55:37.042Z,24.52
2019-04-03T19:58:05.678Z,24.32
2019-04-03T20:00:36.617Z,22.62
2019-04-03T20:03:05.683Z,26.07
2019-04-03T20:05:34.435Z,28.60
2019-04-03T20:08:03.118Z,26.45
2019-04-03T20:10:33.874Z,28.32
2019-04-03T20:13:02.353Z,26.73
2019-04-03T20:15:31.432Z,25.62
2019-04-03T20:17:59.978Z,26.55
2019-04-03T20:20:31.601Z,30.08
2019-04-03T20:22:59.020Z,32.03
2019-04-03T20:25:27.587Z,29.35
2019-04-03T20:27:57.140Z,32.85
2019-04-03T20:30:26.003Z,29.45
2019-04-03T20:32:54.592Z,27.67
2019-04-03T20:35:23.377Z,31.35
2019-04-03T20:37:52.068Z,31.90
2019-04-03T20:40:20.614Z,30.35
2019-04-03T20:42:49.240Z,41.42
2019-04-03T20:45:19.151Z,39.98
2019-04-03T20:47:48.550Z,42.43
2019-04-03T20:50:19.490Z,41.60
2019-04-03T20:52:48.588Z,37.70
2019-04-03T20:55:17.172Z,42.23
2019-04-03T20:57:55.570Z,38.63
2019-04-03T21:00:19.991Z,42.27
2019-04-03T21:02:48.666Z,39.45
2019-04-03T21:05:18.583Z,40.90
2019-04-03T21:07:49.056Z,44.77
2019-04-03T21:10:17.681Z,43.00
2019-04-03T21:12:46.374Z,41.73
2019-04-03T21:15:15.373Z,40.88
2019-04-03T21:17:43.949Z,44.25
2019-04-03T21:20:12.732Z,45.80
2019-04-03T21:22:47.910Z,48.52
2019-04-03T21:25:16.547Z,46.55
2019-04-03T21:27:45.143Z,45.35
2019-04-03T21:30:14.054Z,45.48
2019-04-03T21:32:42.583Z,42.85
2019-04-03T21:35:11.507Z,47.70
2019-04-03T21:37:40.705Z,47.98
2019-04-03T21:40:10.211Z,45.58
2019-04-03T21:42:38.791Z,47.17
2019-04-03T21:45:08.337Z,48.25
2019-04-03T21:47:37.012Z,44.77
2019-04-03T21:50:07.823Z,52.05
2019-04-03T21:52:36.629Z,47.08
2019-04-03T21:55:07.340Z,51.18
2019-04-03T21:57:38.439Z,46.80
2019-04-03T22:00:08.599Z,48.15
2019-04-03T22:02:37.157Z,49.18
2019-04-03T22:05:08.235Z,48.15
2019-04-03T22:07:37.018Z,48.40
2019-04-03T22:10:09.064Z,49.80
2019-04-03T22:12:38.006Z,46.05
2019-04-03T22:15:08.297Z,49.90
2019-04-03T22:17:36.833Z,49.88
2019-04-03T22:20:06.998Z,49.53
2019-04-03T22:22:35.583Z,47.83
2019-04-03T22:25:04.774Z,51.95
2019-04-03T22:27:33.578Z,50.45
2019-04-03T22:30:02.469Z,52.40
2019-04-03T22:32:31.010Z,50.52
2019-04-03T22:35:03.016Z,51.10
2019-04-03T22:39:59.968Z,46.55
2019-04-03T22:42:28.533Z,51.05
2019-04-03T22:44:57.349Z,48.83
2019-04-03T22:47:26.450Z,54.35
2019-04-03T22:49:55.230Z,50.50
2019-04-03T22:52:24.147Z,54.50
2019-04-03T22:54:52.674Z,53.83
2019-04-03T22:57:21.214Z,52.73
2019-04-03T22:59:49.982Z,54.98
2019-04-03T23:02:18.531Z,56.18
2019-04-03T23:04:47.349Z,55.60
2019-04-03T23:07:16.039Z,57.78
2019-04-03T23:09:44.628Z,57.75
2019-04-03T23:12:13.215Z,55.17
2019-04-03T23:14:41.989Z,60.03
2019-04-03T23:17:11.981Z,59.42
2019-04-03T23:19:41.312Z,65.40
2019-04-03T23:22:10.320Z,60.60
2019-04-03T23:24:38.984Z,60.35
2019-04-03T23:27:07.578Z,61.65
2019-04-03T23:29:36.817Z,61.30
2019-04-03T23:32:05.452Z,62.27
2019-04-03T23:34:34.094Z,59.67
2019-04-03T23:37:02.839Z,60.90
2019-04-03T23:39:31.721Z,67.40
2019-04-03T23:42:00.515Z,81.87
2019-04-03T23:44:29.506Z,73.95
2019-04-03T23:46:58.091Z,75.05
2019-04-03T23:49:26.876Z,71.20
2019-04-03T23:51:58.619Z,66.87
2019-04-03T23:54:26.268Z,54.88
2019-04-03T23:56:54.769Z,50.65
2019-04-03T23:59:25.749Z,49.88
